createdAt,value
2018-08-03T17:51:14.996Z,32.20
2018-08-03T17:53:43.224Z,32.20
2018-08-03T17:56:12.220Z,32.60
2018-08-03T17:58:40.705Z,33.30
2018-08-03T18:01:09.536Z,33.10
2018-08-03T18:03:38.021Z,33.10
2018-08-03T18:06:06.378Z,33.40
2018-08-03T18:08:34.686Z,33.80
2018-08-03T18:11:03.039Z,33.90
2018-08-03T18:13:31.565Z,34.40
2018-08-03T18:16:01.478Z,34.70
2018-08-03T18:18:29.816Z,34.70
2018-08-03T18:20:59.137Z,35.10
2018-08-03T18:23:27.428Z,35.20
2018-08-03T18:25:55.965Z,35.60
2018-08-03T18:28:24.454Z,35.70
2018-08-03T18:30:52.744Z,35.90
2018-08-03T18:33:22.139Z,36.30
2018-08-03T18:35:57.129Z,36.50
2018-08-03T18:38:25.357Z,36.50
2018-08-03T18:40:53.774Z,36.40
2018-08-03T18:43:22.317Z,36.70
2018-08-03T18:45:52.874Z,36.70
2018-08-03T18:48:30.911Z,36.90
2018-08-03T18:50:59.510Z,37.10
2018-08-03T18:53:29.197Z,37.20
2018-08-03T18:56:03.681Z,37.30
2018-08-03T18:58:34.318Z,37.30
2018-08-03T19:01:02.903Z,37.40
2018-08-03T19:03:31.450Z,37.60
2018-08-03T19:06:01.802Z,37.80
2018-08-03T19:08:30.919Z,37.90
2018-08-03T19:11:02.131Z,37.80
2018-08-03T19:13:30.463Z,38.20
2018-08-03T19:15:58.737Z,38.40
2018-08-03T19:18:26.929Z,38.50
2018-08-03T19:20:55.556Z,39.10
2018-08-03T19:23:25.815Z,38.90
2018-08-03T19:25:54.093Z,38.90
2018-08-03T19:28:22.304Z,39.00
2018-08-03T19:30:50.950Z,39.20
2018-08-03T19:33:24.374Z,39.30
2018-08-03T19:35:53.380Z,39.70
2018-08-03T19:38:21.716Z,39.80
2018-08-03T19:40:50.049Z,40.00
2018-08-03T19:43:18.375Z,40.50
2018-08-03T19:45:46.813Z,40.30
2018-08-03T19:48:15.133Z,40.60
2018-08-03T19:50:43.472Z,40.70
2018-08-03T19:53:11.898Z,41.20
2018-08-03T19:55:40.165Z,41.60
2018-08-03T19:58:08.352Z,41.90
2018-08-03T20:00:36.576Z,42.50
2018-08-03T20:03:04.773Z,42.60
2018-08-03T20:05:33.041Z,43.20
2018-08-03T20:08:01.285Z,43.20
2018-08-03T20:10:29.706Z,43.00
2018-08-03T20:12:59.021Z,42.60
2018-08-03T20:15:27.274Z,42.40
2018-08-03T20:17:55.766Z,42.90
2018-08-03T20:20:24.172Z,43.10
2018-08-03T20:22:52.605Z,43.50
2018-08-03T20:25:20.901Z,43.40
2018-08-03T20:27:49.217Z,43.70
2018-08-03T20:30:17.482Z,43.90
2018-08-03T20:32:45.865Z,44.00
2018-08-03T20:35:15.357Z,44.30
2018-08-03T20:37:43.572Z,44.40
2018-08-03T20:40:11.889Z,45.00
2018-08-03T20:42:41.426Z,45.10
2018-08-03T20:45:09.789Z,45.40
2018-08-03T20:47:38.098Z,46.00
2018-08-03T20:50:06.537Z,46.40
2018-08-03T20:52:34.935Z,47.00
2018-08-03T20:55:03.277Z,47.00
2018-08-03T20:57:31.690Z,47.20
2018-08-03T21:00:00.099Z,47.60
2018-08-03T21:02:28.377Z,47.40
2018-08-03T21:04:57.020Z,47.70
2018-08-03T21:07:25.379Z,47.80
2018-08-03T21:09:53.708Z,48.00
2018-08-03T21:12:22.135Z,48.30
2018-08-03T21:14:50.468Z,48.70
2018-08-03T21:17:18.890Z,49.00
2018-08-03T21:19:47.204Z,49.30
2018-08-03T21:22:15.696Z,49.40
2018-08-03T21:24:44.167Z,49.60
2018-08-03T21:27:12.561Z,49.90
2018-08-03T21:29:40.841Z,50.40
2018-08-03T21:32:09.216Z,50.40
2018-08-03T21:34:37.709Z,50.50
2018-08-03T21:37:06.192Z,50.60
2018-08-03T21:39:34.577Z,50.60
2018-08-03T21:42:05.188Z,50.80
2018-08-03T21:44:33.549Z,51.00
2018-08-03T21:47:01.804Z,51.00
2018-08-03T21:49:30.224Z,51.30
2018-08-03T21:51:58.531Z,51.30
2018-08-03T21:54:26.796Z,51.70
2018-08-03T21:56:55.073Z,51.90
2018-08-03T21:59:23.320Z,52.20
2018-08-03T22:01:51.604Z,52.20
2018-08-03T22:04:19.987Z,52.60
2018-08-03T22:06:48.340Z,52.40
2018-08-03T22:09:16.662Z,52.50
2018-08-03T22:11:45.021Z,52.80
2018-08-03T22:14:13.308Z,53.00
2018-08-03T22:16:42.694Z,53.90
2018-08-03T22:19:10.969Z,54.10
2018-08-03T22:21:39.324Z,53.40
2018-08-03T22:24:07.581Z,53.10
2018-08-03T22:26:35.901Z,53.40
2018-08-03T22:29:04.264Z,53.80
2018-08-03T22:31:32.604Z,54.00
2018-08-03T22:34:00.837Z,54.30
2018-08-03T22:36:29.101Z,54.60
2018-08-03T22:38:58.440Z,54.70
2018-08-03T22:41:26.722Z,54.80
2018-08-03T22:43:55.009Z,54.70
2018-08-03T22:46:23.368Z,55.00
2018-08-03T22:48:51.704Z,55.50
2018-08-03T22:51:20.085Z,55.50
2018-08-03T22:53:48.419Z,55.30
2018-08-03T22:56:16.750Z,55.20
2018-08-03T22:58:45.122Z,55.50
2018-08-03T23:01:13.500Z,55.60
2018-08-03T23:03:41.843Z,55.70
2018-08-03T23:06:10.297Z,55.50
2018-08-03T23:08:38.633Z,55.70
2018-08-03T23:11:07.133Z,55.60
2018-08-03T23:13:35.444Z,55.50
2018-08-03T23:16:03.892Z,55.80
2018-08-03T23:18:32.362Z,55.60
2018-08-03T23:21:00.713Z,55.90
2018-08-03T23:23:29.031Z,56.50
2018-08-03T23:25:57.460Z,55.90
2018-08-03T23:28:25.825Z,56.30
2018-08-03T23:30:54.282Z,56.30
2018-08-03T23:33:22.916Z,56.80
2018-08-03T23:35:51.264Z,56.20
2018-08-03T23:38:19.601Z,56.50
2018-08-03T23:40:47.975Z,56.40
2018-08-03T23:43:16.353Z,56.50
2018-08-03T23:45:44.706Z,56.20
2018-08-03T23:48:13.070Z,56.50
2018-08-03T23:50:41.324Z,56.90
2018-08-03T23:53:09.665Z,56.90
2018-08-03T23:55:37.931Z,57.00
2018-08-03T23:58:06.222Z,56.90
